METAR Data
IDs: Format: Raw Decoded Include TAF

Data at: 0140 UTC 20 Jul 2019

METAR for:KCID (Cedar Rapids/E Iowao, IA, US)
Text:KCID 200052Z 19014G21KT 10SM CLR 31/26 A2971 RMK AO2 SLP053 T03110261
Temperature: 31.1°C ( 88°F)
Dewpoint: 26.1°C ( 79°F) [RH = 75%]
Pressure (altimeter):29.71 inches Hg (1006.2 mb) [Sea level pressure: 1005.3 mb]
Winds:from the S (190 degrees) at 16 MPH (14 knots; 7.2 m/s) gusting to 24 MPH (21 knots; 10.8 m/s)
Visibility:10 or more sm (16+ km)
Ceiling:at least 12,000 feet AGL
Clouds:sky clear below 12,000 feet AGL